sensor_id;sensor_type;location;lat;lon;timestamp;P1;durP1;ratioP1;P2;durP2;ratioP2
43678;SDS011;29279;50.858;4.392;2023-04-30T00:01:39;30.67;;;17.48;;
43678;SDS011;29279;50.858;4.392;2023-04-30T00:04:05;26.30;;;16.75;;
43678;SDS011;29279;50.858;4.392;2023-04-30T00:06:31;23.63;;;16.45;;
43678;SDS011;29279;50.858;4.392;2023-04-30T00:08:56;24.13;;;15.98;;
43678;SDS011;29279;50.858;4.392;2023-04-30T00:11:22;28.42;;;16.88;;
43678;SDS011;29279;50.858;4.392;2023-04-30T00:13:49;25.85;;;16.60;;
43678;SDS011;29279;50.858;4.392;2023-04-30T00:16:16;27.70;;;16.73;;
43678;SDS011;29279;50.858;4.392;2023-04-30T00:18:42;26.00;;;15.88;;
43678;SDS011;29279;50.858;4.392;2023-04-30T00:21:08;30.08;;;15.85;;
43678;SDS011;29279;50.858;4.392;2023-04-30T00:23:34;25.27;;;14.30;;
43678;SDS011;29279;50.858;4.392;2023-04-30T00:26:00;30.00;;;14.55;;
43678;SDS011;29279;50.858;4.392;2023-04-30T00:28:25;24.50;;;14.95;;
43678;SDS011;29279;50.858;4.392;2023-04-30T00:30:51;23.33;;;12.45;;
43678;SDS011;29279;50.858;4.392;2023-04-30T00:33:17;18.08;;;11.93;;
43678;SDS011;29279;50.858;4.392;2023-04-30T00:35:43;23.30;;;13.18;;
43678;SDS011;29279;50.858;4.392;2023-04-30T00:38:09;19.30;;;11.55;;
43678;SDS011;29279;50.858;4.392;2023-04-30T00:40:34;17.58;;;12.15;;
43678;SDS011;29279;50.858;4.392;2023-04-30T00:43:01;22.05;;;11.70;;
43678;SDS011;29279;50.858;4.392;2023-04-30T00:45:28;20.88;;;11.50;;
43678;SDS011;29279;50.858;4.392;2023-04-30T00:47:54;17.80;;;9.98;;
43678;SDS011;29279;50.858;4.392;2023-04-30T00:50:21;12.85;;;9.38;;
43678;SDS011;29279;50.858;4.392;2023-04-30T00:52:47;20.73;;;11.05;;
43678;SDS011;29279;50.858;4.392;2023-04-30T00:55:12;15.57;;;9.63;;
43678;SDS011;29279;50.858;4.392;2023-04-30T00:57:38;18.27;;;10.23;;
43678;SDS011;29279;50.858;4.392;2023-04-30T01:00:05;16.65;;;9.20;;
43678;SDS011;29279;50.858;4.392;2023-04-30T01:02:38;16.08;;;9.82;;
43678;SDS011;29279;50.858;4.392;2023-04-30T01:05:04;18.42;;;8.75;;
43678;SDS011;29279;50.858;4.392;2023-04-30T01:07:31;14.30;;;8.68;;
43678;SDS011;29279;50.858;4.392;2023-04-30T01:09:58;11.73;;;8.30;;
43678;SDS011;29279;50.858;4.392;2023-04-30T01:12:36;13.77;;;8.05;;
43678;SDS011;29279;50.858;4.392;2023-04-30T01:15:31;15.63;;;8.50;;
43678;SDS011;29279;50.858;4.392;2023-04-30T01:18:24;11.65;;;7.72;;
43678;SDS011;29279;50.858;4.392;2023-04-30T01:21:00;11.60;;;8.13;;
43678;SDS011;29279;50.858;4.392;2023-04-30T01:28:58;12.25;;;7.80;;
43678;SDS011;29279;50.858;4.392;2023-04-30T01:31:26;11.27;;;7.82;;
43678;SDS011;29279;50.858;4.392;2023-04-30T01:33:53;16.42;;;8.30;;
43678;SDS011;29279;50.858;4.392;2023-04-30T01:42:07;12.50;;;8.48;;
43678;SDS011;29279;50.858;4.392;2023-04-30T01:45:10;15.48;;;8.38;;
43678;SDS011;29279;50.858;4.392;2023-04-30T01:47:56;14.02;;;7.95;;
43678;SDS011;29279;50.858;4.392;2023-04-30T01:50:33;18.77;;;8.43;;
43678;SDS011;29279;50.858;4.392;2023-04-30T01:53:23;17.25;;;8.27;;
43678;SDS011;29279;50.858;4.392;2023-04-30T01:56:03;13.27;;;8.38;;
43678;SDS011;29279;50.858;4.392;2023-04-30T01:58:34;12.85;;;8.43;;
43678;SDS011;29279;50.858;4.392;2023-04-30T02:01:02;12.95;;;8.40;;
43678;SDS011;29279;50.858;4.392;2023-04-30T02:03:27;16.15;;;8.85;;
43678;SDS011;29279;50.858;4.392;2023-04-30T02:05:53;13.90;;;8.27;;
43678;SDS011;29279;50.858;4.392;2023-04-30T02:08:19;13.20;;;8.18;;
43678;SDS011;29279;50.858;4.392;2023-04-30T02:10:45;14.05;;;8.20;;
43678;SDS011;29279;50.858;4.392;2023-04-30T02:13:14;13.18;;;8.30;;
43678;SDS011;29279;50.858;4.392;2023-04-30T02:15:39;13.93;;;7.90;;
43678;SDS011;29279;50.858;4.392;2023-04-30T02:18:05;20.35;;;8.77;;
43678;SDS011;29279;50.858;4.392;2023-04-30T02:20:31;10.30;;;7.53;;
43678;SDS011;29279;50.858;4.392;2023-04-30T02:22:56;13.85;;;8.13;;
43678;SDS011;29279;50.858;4.392;2023-04-30T02:25:22;16.88;;;9.13;;
43678;SDS011;29279;50.858;4.392;2023-04-30T02:27:48;22.23;;;10.07;;
43678;SDS011;29279;50.858;4.392;2023-04-30T02:30:15;12.70;;;8.85;;
43678;SDS011;29279;50.858;4.392;2023-04-30T02:32:41;17.13;;;9.32;;
43678;SDS011;29279;50.858;4.392;2023-04-30T02:35:06;15.82;;;9.35;;
43678;SDS011;29279;50.858;4.392;2023-04-30T02:37:32;14.77;;;9.95;;
43678;SDS011;29279;50.858;4.392;2023-04-30T02:39:58;13.65;;;8.57;;
43678;SDS011;29279;50.858;4.392;2023-04-30T02:42:24;17.35;;;9.45;;
43678;SDS011;29279;50.858;4.392;2023-04-30T02:44:49;15.75;;;9.38;;
43678;SDS011;29279;50.858;4.392;2023-04-30T02:47:15;18.20;;;8.77;;
43678;SDS011;29279;50.858;4.392;2023-04-30T02:49:41;13.95;;;8.82;;
43678;SDS011;29279;50.858;4.392;2023-04-30T02:52:06;16.05;;;8.82;;
43678;SDS011;29279;50.858;4.392;2023-04-30T02:54:34;15.50;;;9.10;;
43678;SDS011;29279;50.858;4.392;2023-04-30T02:57:00;15.00;;;8.45;;
43678;SDS011;29279;50.858;4.392;2023-04-30T02:59:28;15.82;;;9.43;;
43678;SDS011;29279;50.858;4.392;2023-04-30T03:01:54;15.02;;;8.73;;
43678;SDS011;29279;50.858;4.392;2023-04-30T03:04:19;14.45;;;8.52;;
43678;SDS011;29279;50.858;4.392;2023-04-30T03:06:45;15.63;;;8.73;;
43678;SDS011;29279;50.858;4.392;2023-04-30T03:09:11;15.23;;;8.23;;
43678;SDS011;29279;50.858;4.392;2023-04-30T03:11:36;13.70;;;9.02;;
43678;SDS011;29279;50.858;4.392;2023-04-30T03:14:02;17.90;;;9.45;;
43678;SDS011;29279;50.858;4.392;2023-04-30T03:16:28;17.55;;;9.23;;
43678;SDS011;29279;50.858;4.392;2023-04-30T03:18:55;21.60;;;11.05;;
43678;SDS011;29279;50.858;4.392;2023-04-30T03:21:21;16.83;;;9.65;;
43678;SDS011;29279;50.858;4.392;2023-04-30T03:23:47;14.27;;;9.50;;
43678;SDS011;29279;50.858;4.392;2023-04-30T03:26:13;18.00;;;9.63;;
43678;SDS011;29279;50.858;4.392;2023-04-30T03:28:38;19.65;;;9.57;;
43678;SDS011;29279;50.858;4.392;2023-04-30T03:31:04;17.92;;;9.27;;
43678;SDS011;29279;50.858;4.392;2023-04-30T03:33:33;18.50;;;8.32;;
43678;SDS011;29279;50.858;4.392;2023-04-30T03:35:59;17.33;;;9.65;;
43678;SDS011;29279;50.858;4.392;2023-04-30T03:38:24;22.75;;;10.02;;
43678;SDS011;29279;50.858;4.392;2023-04-30T03:40:50;20.30;;;10.13;;
43678;SDS011;29279;50.858;4.392;2023-04-30T03:43:16;23.55;;;11.00;;
43678;SDS011;29279;50.858;4.392;2023-04-30T03:45:41;16.50;;;9.05;;
43678;SDS011;29279;50.858;4.392;2023-04-30T03:48:07;15.10;;;9.82;;
43678;SDS011;29279;50.858;4.392;2023-04-30T03:50:33;20.33;;;10.05;;
43678;SDS011;29279;50.858;4.392;2023-04-30T03:52:59;14.02;;;9.80;;
43678;SDS011;29279;50.858;4.392;2023-04-30T03:55:25;13.70;;;9.20;;
43678;SDS011;29279;50.858;4.392;2023-04-30T03:57:51;17.27;;;10.10;;
43678;SDS011;29279;50.858;4.392;2023-04-30T04:00:17;16.80;;;11.05;;
43678;SDS011;29279;50.858;4.392;2023-04-30T04:02:42;20.42;;;10.65;;
43678;SDS011;29279;50.858;4.392;2023-04-30T04:05:08;19.70;;;10.32;;
43678;SDS011;29279;50.858;4.392;2023-04-30T04:07:34;23.00;;;10.27;;
43678;SDS011;29279;50.858;4.392;2023-04-30T04:10:00;16.77;;;11.07;;
43678;SDS011;29279;50.858;4.392;2023-04-30T04:12:26;24.38;;;10.43;;
43678;SDS011;29279;50.858;4.392;2023-04-30T04:14:51;22.35;;;11.40;;
43678;SDS011;29279;50.858;4.392;2023-04-30T04:17:17;16.20;;;11.20;;
43678;SDS011;29279;50.858;4.392;2023-04-30T04:19:43;25.80;;;11.25;;
43678;SDS011;29279;50.858;4.392;2023-04-30T04:22:08;16.95;;;10.85;;
43678;SDS011;29279;50.858;4.392;2023-04-30T04:24:34;21.02;;;11.05;;
43678;SDS011;29279;50.858;4.392;2023-04-30T04:27:00;20.27;;;11.38;;
43678;SDS011;29279;50.858;4.392;2023-04-30T04:29:27;18.50;;;10.75;;
43678;SDS011;29279;50.858;4.392;2023-04-30T04:31:53;15.65;;;10.85;;
43678;SDS011;29279;50.858;4.392;2023-04-30T04:34:19;17.30;;;10.82;;
43678;SDS011;29279;50.858;4.392;2023-04-30T04:36:45;21.38;;;12.02;;
43678;SDS011;29279;50.858;4.392;2023-04-30T04:39:11;21.38;;;12.80;;
43678;SDS011;29279;50.858;4.392;2023-04-30T04:41:37;21.42;;;12.10;;
43678;SDS011;29279;50.858;4.392;2023-04-30T04:44:03;19.10;;;11.05;;
43678;SDS011;29279;50.858;4.392;2023-04-30T04:46:29;20.17;;;11.40;;
43678;SDS011;29279;50.858;4.392;2023-04-30T04:48:56;18.00;;;11.90;;
43678;SDS011;29279;50.858;4.392;2023-04-30T04:51:22;20.98;;;11.85;;
43678;SDS011;29279;50.858;4.392;2023-04-30T04:53:48;19.30;;;11.43;;
43678;SDS011;29279;50.858;4.392;2023-04-30T04:56:14;20.08;;;11.95;;
43678;SDS011;29279;50.858;4.392;2023-04-30T04:58:40;22.65;;;12.55;;
43678;SDS011;29279;50.858;4.392;2023-04-30T05:01:06;18.67;;;11.75;;
43678;SDS011;29279;50.858;4.392;2023-04-30T05:03:33;18.88;;;11.43;;
43678;SDS011;29279;50.858;4.392;2023-04-30T05:06:03;27.17;;;13.10;;
43678;SDS011;29279;50.858;4.392;2023-04-30T05:08:29;22.50;;;12.60;;
43678;SDS011;29279;50.858;4.392;2023-04-30T05:10:55;16.90;;;11.90;;
43678;SDS011;29279;50.858;4.392;2023-04-30T05:13:20;22.70;;;12.07;;
43678;SDS011;29279;50.858;4.392;2023-04-30T05:15:48;22.15;;;13.35;;
43678;SDS011;29279;50.858;4.392;2023-04-30T05:18:15;20.00;;;13.02;;
43678;SDS011;29279;50.858;4.392;2023-04-30T05:20:41;18.98;;;12.13;;
43678;SDS011;29279;50.858;4.392;2023-04-30T05:23:06;25.77;;;13.80;;
43678;SDS011;29279;50.858;4.392;2023-04-30T05:25:32;26.50;;;13.75;;
43678;SDS011;29279;50.858;4.392;2023-04-30T05:27:59;20.98;;;13.13;;
43678;SDS011;29279;50.858;4.392;2023-04-30T05:30:25;24.55;;;13.32;;
43678;SDS011;29279;50.858;4.392;2023-04-30T05:32:50;25.02;;;13.25;;
43678;SDS011;29279;50.858;4.392;2023-04-30T05:35:16;17.38;;;13.05;;
43678;SDS011;29279;50.858;4.392;2023-04-30T05:37:43;22.25;;;15.02;;
43678;SDS011;29279;50.858;4.392;2023-04-30T05:40:12;20.60;;;14.05;;
43678;SDS011;29279;50.858;4.392;2023-04-30T05:42:39;23.45;;;15.15;;
43678;SDS011;29279;50.858;4.392;2023-04-30T05:45:07;24.33;;;15.30;;
43678;SDS011;29279;50.858;4.392;2023-04-30T05:47:38;23.42;;;14.50;;
43678;SDS011;29279;50.858;4.392;2023-04-30T05:50:04;21.08;;;14.15;;
43678;SDS011;29279;50.858;4.392;2023-04-30T05:52:31;21.95;;;14.68;;
43678;SDS011;29279;50.858;4.392;2023-04-30T05:54:56;22.27;;;14.90;;
43678;SDS011;29279;50.858;4.392;2023-04-30T05:57:22;29.55;;;14.82;;
43678;SDS011;29279;50.858;4.392;2023-04-30T05:59:48;30.13;;;15.80;;
43678;SDS011;29279;50.858;4.392;2023-04-30T06:02:13;26.80;;;14.80;;
43678;SDS011;29279;50.858;4.392;2023-04-30T06:04:39;28.75;;;15.63;;
43678;SDS011;29279;50.858;4.392;2023-04-30T06:07:06;22.67;;;14.75;;
43678;SDS011;29279;50.858;4.392;2023-04-30T06:09:31;22.83;;;16.00;;
43678;SDS011;29279;50.858;4.392;2023-04-30T06:11:57;23.98;;;15.70;;
43678;SDS011;29279;50.858;4.392;2023-04-30T06:14:23;26.42;;;17.10;;
43678;SDS011;29279;50.858;4.392;2023-04-30T06:16:49;24.63;;;16.45;;
43678;SDS011;29279;50.858;4.392;2023-04-30T06:19:15;26.42;;;17.10;;
43678;SDS011;29279;50.858;4.392;2023-04-30T06:21:41;26.40;;;16.77;;
43678;SDS011;29279;50.858;4.392;2023-04-30T06:24:09;25.35;;;17.15;;
43678;SDS011;29279;50.858;4.392;2023-04-30T06:26:35;23.92;;;16.50;;
43678;SDS011;29279;50.858;4.392;2023-04-30T06:29:01;26.63;;;17.40;;
43678;SDS011;29279;50.858;4.392;2023-04-30T06:31:26;26.83;;;17.50;;
43678;SDS011;29279;50.858;4.392;2023-04-30T06:33:52;28.50;;;17.33;;
43678;SDS011;29279;50.858;4.392;2023-04-30T06:36:18;32.30;;;18.83;;
43678;SDS011;29279;50.858;4.392;2023-04-30T06:38:44;31.83;;;17.23;;
43678;SDS011;29279;50.858;4.392;2023-04-30T06:41:13;23.33;;;16.85;;
43678;SDS011;29279;50.858;4.392;2023-04-30T06:43:40;33.20;;;19.35;;
43678;SDS011;29279;50.858;4.392;2023-04-30T06:46:07;28.70;;;19.33;;
43678;SDS011;29279;50.858;4.392;2023-04-30T06:48:32;26.45;;;18.23;;
43678;SDS011;29279;50.858;4.392;2023-04-30T06:50:58;29.15;;;17.88;;
43678;SDS011;29279;50.858;4.392;2023-04-30T06:53:24;27.75;;;18.85;;
43678;SDS011;29279;50.858;4.392;2023-04-30T06:55:50;29.20;;;18.77;;
43678;SDS011;29279;50.858;4.392;2023-04-30T06:58:16;30.73;;;19.20;;
43678;SDS011;29279;50.858;4.392;2023-04-30T07:00:42;30.30;;;18.60;;
43678;SDS011;29279;50.858;4.392;2023-04-30T07:03:08;26.02;;;19.25;;
43678;SDS011;29279;50.858;4.392;2023-04-30T07:05:34;27.02;;;18.33;;
43678;SDS011;29279;50.858;4.392;2023-04-30T07:08:00;32.92;;;21.15;;
43678;SDS011;29279;50.858;4.392;2023-04-30T07:10:27;34.03;;;20.65;;
43678;SDS011;29279;50.858;4.392;2023-04-30T07:12:53;34.40;;;19.45;;
43678;SDS011;29279;50.858;4.392;2023-04-30T07:15:19;32.70;;;20.65;;
43678;SDS011;29279;50.858;4.392;2023-04-30T07:17:45;33.88;;;20.83;;
43678;SDS011;29279;50.858;4.392;2023-04-30T07:20:11;32.15;;;22.30;;
43678;SDS011;29279;50.858;4.392;2023-04-30T07:22:43;30.30;;;21.05;;
43678;SDS011;29279;50.858;4.392;2023-04-30T07:25:10;31.35;;;22.17;;
43678;SDS011;29279;50.858;4.392;2023-04-30T07:27:36;36.13;;;21.35;;
43678;SDS011;29279;50.858;4.392;2023-04-30T07:30:03;32.05;;;20.45;;
43678;SDS011;29279;50.858;4.392;2023-04-30T07:32:29;32.10;;;22.48;;
43678;SDS011;29279;50.858;4.392;2023-04-30T07:34:55;30.98;;;21.27;;
43678;SDS011;29279;50.858;4.392;2023-04-30T07:37:21;37.03;;;21.58;;
43678;SDS011;29279;50.858;4.392;2023-04-30T07:39:46;28.95;;;21.33;;
43678;SDS011;29279;50.858;4.392;2023-04-30T07:42:12;31.17;;;21.70;;
43678;SDS011;29279;50.858;4.392;2023-04-30T07:44:38;32.78;;;21.60;;
43678;SDS011;29279;50.858;4.392;2023-04-30T07:47:05;35.03;;;22.13;;
43678;SDS011;29279;50.858;4.392;2023-04-30T07:49:30;28.38;;;20.30;;
43678;SDS011;29279;50.858;4.392;2023-04-30T07:51:56;33.60;;;20.10;;
43678;SDS011;29279;50.858;4.392;2023-04-30T07:54:22;26.35;;;19.40;;
43678;SDS011;29279;50.858;4.392;2023-04-30T07:56:47;28.33;;;19.95;;
43678;SDS011;29279;50.858;4.392;2023-04-30T07:59:13;27.80;;;19.80;;
43678;SDS011;29279;50.858;4.392;2023-04-30T08:01:39;28.27;;;20.23;;
43678;SDS011;29279;50.858;4.392;2023-04-30T08:04:05;24.67;;;18.88;;
43678;SDS011;29279;50.858;4.392;2023-04-30T08:06:31;31.20;;;18.73;;
43678;SDS011;29279;50.858;4.392;2023-04-30T08:08:57;34.67;;;19.92;;
43678;SDS011;29279;50.858;4.392;2023-04-30T08:11:22;29.25;;;20.98;;
43678;SDS011;29279;50.858;4.392;2023-04-30T08:13:48;26.95;;;17.63;;
43678;SDS011;29279;50.858;4.392;2023-04-30T08:16:14;27.40;;;17.55;;
43678;SDS011;29279;50.858;4.392;2023-04-30T08:18:39;28.08;;;18.55;;
43678;SDS011;29279;50.858;4.392;2023-04-30T08:21:08;27.60;;;18.20;;
43678;SDS011;29279;50.858;4.392;2023-04-30T08:23:37;28.73;;;17.75;;
43678;SDS011;29279;50.858;4.392;2023-04-30T08:26:03;28.02;;;18.52;;
43678;SDS011;29279;50.858;4.392;2023-04-30T08:28:32;28.52;;;17.33;;
43678;SDS011;29279;50.858;4.392;2023-04-30T08:30:58;23.10;;;16.88;;
43678;SDS011;29279;50.858;4.392;2023-04-30T08:33:28;24.10;;;17.08;;
43678;SDS011;29279;50.858;4.392;2023-04-30T08:35:54;22.83;;;17.60;;
43678;SDS011;29279;50.858;4.392;2023-04-30T08:38:19;34.80;;;17.35;;
43678;SDS011;29279;50.858;4.392;2023-04-30T08:40:48;29.42;;;17.73;;
43678;SDS011;29279;50.858;4.392;2023-04-30T08:43:36;19.05;;;14.82;;
43678;SDS011;29279;50.858;4.392;2023-04-30T08:46:02;21.90;;;15.48;;
43678;SDS011;29279;50.858;4.392;2023-04-30T08:48:29;24.40;;;16.10;;
43678;SDS011;29279;50.858;4.392;2023-04-30T08:50:58;26.73;;;15.32;;
43678;SDS011;29279;50.858;4.392;2023-04-30T08:53:28;20.73;;;12.82;;
43678;SDS011;29279;50.858;4.392;2023-04-30T08:55:55;17.73;;;13.15;;
43678;SDS011;29279;50.858;4.392;2023-04-30T08:58:21;24.75;;;15.60;;
43678;SDS011;29279;50.858;4.392;2023-04-30T09:00:47;20.95;;;14.45;;
43678;SDS011;29279;50.858;4.392;2023-04-30T09:03:16;24.58;;;14.95;;
43678;SDS011;29279;50.858;4.392;2023-04-30T09:05:42;21.20;;;14.43;;
43678;SDS011;29279;50.858;4.392;2023-04-30T09:08:08;18.38;;;12.98;;
43678;SDS011;29279;50.858;4.392;2023-04-30T09:10:34;21.80;;;13.50;;
43678;SDS011;29279;50.858;4.392;2023-04-30T09:13:00;19.67;;;13.00;;
43678;SDS011;29279;50.858;4.392;2023-04-30T09:15:28;18.33;;;11.32;;
43678;SDS011;29279;50.858;4.392;2023-04-30T09:18:13;19.85;;;12.77;;
43678;SDS011;29279;50.858;4.392;2023-04-30T09:20:54;19.63;;;11.10;;
43678;SDS011;29279;50.858;4.392;2023-04-30T09:23:27;17.83;;;11.38;;
43678;SDS011;29279;50.858;4.392;2023-04-30T09:25:56;15.10;;;10.80;;
43678;SDS011;29279;50.858;4.392;2023-04-30T09:28:22;16.10;;;11.80;;
43678;SDS011;29279;50.858;4.392;2023-04-30T09:30:50;17.15;;;12.13;;
43678;SDS011;29279;50.858;4.392;2023-04-30T09:33:16;20.95;;;11.65;;
43678;SDS011;29279;50.858;4.392;2023-04-30T09:35:42;16.52;;;9.98;;
43678;SDS011;29279;50.858;4.392;2023-04-30T09:41:22;17.10;;;10.90;;
43678;SDS011;29279;50.858;4.392;2023-04-30T09:43:53;17.98;;;12.13;;
43678;SDS011;29279;50.858;4.392;2023-04-30T09:46:19;15.63;;;10.07;;
43678;SDS011;29279;50.858;4.392;2023-04-30T09:48:46;16.38;;;10.20;;
43678;SDS011;29279;50.858;4.392;2023-04-30T09:51:21;15.80;;;9.73;;
43678;SDS011;29279;50.858;4.392;2023-04-30T09:53:47;13.35;;;9.73;;
43678;SDS011;29279;50.858;4.392;2023-04-30T09:56:14;15.02;;;10.73;;
43678;SDS011;29279;50.858;4.392;2023-04-30T09:58:50;13.20;;;9.77;;
43678;SDS011;29279;50.858;4.392;2023-04-30T10:01:20;13.93;;;10.45;;
43678;SDS011;29279;50.858;4.392;2023-04-30T10:03:50;12.27;;;8.93;;
43678;SDS011;29279;50.858;4.392;2023-04-30T10:06:16;13.45;;;9.80;;
43678;SDS011;29279;50.858;4.392;2023-04-30T10:08:48;13.20;;;9.93;;
43678;SDS011;29279;50.858;4.392;2023-04-30T10:13:53;12.25;;;8.57;;
43678;SDS011;29279;50.858;4.392;2023-04-30T10:18:58;13.15;;;9.57;;
43678;SDS011;29279;50.858;4.392;2023-04-30T10:21:30;11.88;;;8.98;;
43678;SDS011;29279;50.858;4.392;2023-04-30T10:23:56;13.95;;;9.18;;
43678;SDS011;29279;50.858;4.392;2023-04-30T10:26:23;12.77;;;8.98;;
43678;SDS011;29279;50.858;4.392;2023-04-30T10:28:49;11.20;;;7.95;;
43678;SDS011;29279;50.858;4.392;2023-04-30T10:31:17;10.88;;;7.80;;
43678;SDS011;29279;50.858;4.392;2023-04-30T10:33:52;10.88;;;7.88;;
43678;SDS011;29279;50.858;4.392;2023-04-30T10:36:39;14.80;;;7.63;;
43678;SDS011;29279;50.858;4.392;2023-04-30T10:39:12;10.23;;;6.32;;
43678;SDS011;29279;50.858;4.392;2023-04-30T10:41:43;11.20;;;7.00;;
43678;SDS011;29279;50.858;4.392;2023-04-30T10:44:11;11.38;;;7.72;;
43678;SDS011;29279;50.858;4.392;2023-04-30T10:46:37;10.82;;;7.25;;
43678;SDS011;29279;50.858;4.392;2023-04-30T10:49:03;10.68;;;7.00;;
43678;SDS011;29279;50.858;4.392;2023-04-30T10:51:48;14.00;;;6.47;;
43678;SDS011;29279;50.858;4.392;2023-04-30T10:54:35;11.32;;;6.22;;
43678;SDS011;29279;50.858;4.392;2023-04-30T10:57:14;8.48;;;5.60;;
43678;SDS011;29279;50.858;4.392;2023-04-30T11:02:17;6.88;;;4.78;;
43678;SDS011;29279;50.858;4.392;2023-04-30T11:07:35;7.28;;;5.07;;
43678;SDS011;29279;50.858;4.392;2023-04-30T11:10:01;8.38;;;4.95;;
43678;SDS011;29279;50.858;4.392;2023-04-30T11:12:27;6.68;;;5.25;;
43678;SDS011;29279;50.858;4.392;2023-04-30T11:14:59;6.40;;;4.68;;
43678;SDS011;29279;50.858;4.392;2023-04-30T11:17:30;8.13;;;5.18;;
43678;SDS011;29279;50.858;4.392;2023-04-30T11:19:58;6.60;;;5.03;;
43678;SDS011;29279;50.858;4.392;2023-04-30T11:22:27;5.68;;;4.22;;
43678;SDS011;29279;50.858;4.392;2023-04-30T11:27:37;7.22;;;5.47;;
43678;SDS011;29279;50.858;4.392;2023-04-30T11:30:15;6.55;;;5.07;;
43678;SDS011;29279;50.858;4.392;2023-04-30T11:32:44;6.65;;;4.85;;
43678;SDS011;29279;50.858;4.392;2023-04-30T11:35:11;6.88;;;4.68;;
43678;SDS011;29279;50.858;4.392;2023-04-30T11:37:40;8.88;;;4.72;;
43678;SDS011;29279;50.858;4.392;2023-04-30T11:40:10;6.50;;;4.45;;
43678;SDS011;29279;50.858;4.392;2023-04-30T11:42:38;6.78;;;3.92;;
43678;SDS011;29279;50.858;4.392;2023-04-30T11:45:08;9.32;;;4.25;;
43678;SDS011;29279;50.858;4.392;2023-04-30T11:47:48;6.95;;;4.03;;
43678;SDS011;29279;50.858;4.392;2023-04-30T11:50:15;7.55;;;4.13;;
43678;SDS011;29279;50.858;4.392;2023-04-30T11:52:50;6.70;;;3.97;;
43678;SDS011;29279;50.858;4.392;2023-04-30T11:55:20;7.28;;;4.40;;
43678;SDS011;29279;50.858;4.392;2023-04-30T11:57:48;9.25;;;5.20;;
43678;SDS011;29279;50.858;4.392;2023-04-30T12:00:19;5.10;;;3.70;;
43678;SDS011;29279;50.858;4.392;2023-04-30T12:02:55;4.07;;;3.40;;
43678;SDS011;29279;50.858;4.392;2023-04-30T12:05:25;8.50;;;4.15;;
43678;SDS011;29279;50.858;4.392;2023-04-30T12:08:02;4.30;;;2.78;;
43678;SDS011;29279;50.858;4.392;2023-04-30T12:10:31;6.78;;;3.05;;
43678;SDS011;29279;50.858;4.392;2023-04-30T12:12:57;5.35;;;3.20;;
43678;SDS011;29279;50.858;4.392;2023-04-30T12:15:23;5.15;;;3.40;;
43678;SDS011;29279;50.858;4.392;2023-04-30T12:17:59;7.07;;;3.20;;
43678;SDS011;29279;50.858;4.392;2023-04-30T12:20:37;7.55;;;4.03;;
43678;SDS011;29279;50.858;4.392;2023-04-30T12:23:04;6.05;;;3.35;;
43678;SDS011;29279;50.858;4.392;2023-04-30T12:25:31;6.18;;;3.63;;
43678;SDS011;29279;50.858;4.392;2023-04-30T12:28:08;6.47;;;4.07;;
43678;SDS011;29279;50.858;4.392;2023-04-30T12:30:34;6.68;;;3.70;;
43678;SDS011;29279;50.858;4.392;2023-04-30T12:33:00;5.82;;;4.53;;
43678;SDS011;29279;50.858;4.392;2023-04-30T12:35:28;6.45;;;4.47;;
43678;SDS011;29279;50.858;4.392;2023-04-30T12:38:01;6.40;;;4.40;;
43678;SDS011;29279;50.858;4.392;2023-04-30T12:40:29;8.00;;;4.28;;
43678;SDS011;29279;50.858;4.392;2023-04-30T12:43:07;9.38;;;4.43;;
43678;SDS011;29279;50.858;4.392;2023-04-30T12:48:11;5.88;;;3.92;;
43678;SDS011;29279;50.858;4.392;2023-04-30T12:50:38;6.85;;;3.90;;
43678;SDS011;29279;50.858;4.392;2023-04-30T12:53:03;4.35;;;3.28;;
43678;SDS011;29279;50.858;4.392;2023-04-30T12:55:30;8.15;;;4.38;;
43678;SDS011;29279;50.858;4.392;2023-04-30T13:00:49;6.25;;;4.15;;
43678;SDS011;29279;50.858;4.392;2023-04-30T13:03:16;4.47;;;3.30;;
43678;SDS011;29279;50.858;4.392;2023-04-30T13:05:48;5.05;;;2.95;;
43678;SDS011;29279;50.858;4.392;2023-04-30T13:08:17;5.97;;;3.40;;
43678;SDS011;29279;50.858;4.392;2023-04-30T13:10:46;4.75;;;3.15;;
43678;SDS011;29279;50.858;4.392;2023-04-30T13:13:13;5.53;;;3.50;;
43678;SDS011;29279;50.858;4.392;2023-04-30T13:15:41;6.40;;;3.70;;
43678;SDS011;29279;50.858;4.392;2023-04-30T13:18:07;8.02;;;3.63;;
43678;SDS011;29279;50.858;4.392;2023-04-30T13:20:34;4.50;;;3.10;;
43678;SDS011;29279;50.858;4.392;2023-04-30T13:23:03;5.72;;;2.92;;
43678;SDS011;29279;50.858;4.392;2023-04-30T13:25:32;3.72;;;2.35;;
43678;SDS011;29279;50.858;4.392;2023-04-30T13:27:59;5.00;;;2.95;;
43678;SDS011;29279;50.858;4.392;2023-04-30T13:30:25;3.75;;;2.08;;
43678;SDS011;29279;50.858;4.392;2023-04-30T13:32:50;6.18;;;2.53;;
43678;SDS011;29279;50.858;4.392;2023-04-30T13:35:16;4.20;;;2.97;;
43678;SDS011;29279;50.858;4.392;2023-04-30T13:37:42;5.05;;;2.83;;
43678;SDS011;29279;50.858;4.392;2023-04-30T13:40:08;4.03;;;2.50;;
43678;SDS011;29279;50.858;4.392;2023-04-30T13:42:36;3.72;;;2.47;;
43678;SDS011;29279;50.858;4.392;2023-04-30T13:45:04;4.80;;;3.00;;
43678;SDS011;29279;50.858;4.392;2023-04-30T13:47:30;6.70;;;2.20;;
43678;SDS011;29279;50.858;4.392;2023-04-30T13:49:56;3.83;;;2.78;;
43678;SDS011;29279;50.858;4.392;2023-04-30T13:52:22;4.28;;;2.78;;
43678;SDS011;29279;50.858;4.392;2023-04-30T13:54:48;4.78;;;2.88;;
43678;SDS011;29279;50.858;4.392;2023-04-30T13:57:13;2.85;;;1.88;;
43678;SDS011;29279;50.858;4.392;2023-04-30T13:59:39;2.90;;;2.28;;
43678;SDS011;29279;50.858;4.392;2023-04-30T14:02:05;6.43;;;3.45;;
43678;SDS011;29279;50.858;4.392;2023-04-30T14:04:31;9.40;;;3.22;;
43678;SDS011;29279;50.858;4.392;2023-04-30T14:06:57;6.32;;;3.20;;
43678;SDS011;29279;50.858;4.392;2023-04-30T14:09:22;4.15;;;2.78;;
43678;SDS011;29279;50.858;4.392;2023-04-30T14:11:48;8.32;;;3.55;;
43678;SDS011;29279;50.858;4.392;2023-04-30T14:14:14;5.18;;;2.95;;
43678;SDS011;29279;50.858;4.392;2023-04-30T14:16:39;7.97;;;2.80;;
43678;SDS011;29279;50.858;4.392;2023-04-30T14:19:06;3.83;;;3.15;;
43678;SDS011;29279;50.858;4.392;2023-04-30T14:21:32;9.70;;;2.70;;
43678;SDS011;29279;50.858;4.392;2023-04-30T14:23:58;7.30;;;2.92;;
43678;SDS011;29279;50.858;4.392;2023-04-30T14:26:23;4.70;;;2.78;;
43678;SDS011;29279;50.858;4.392;2023-04-30T14:28:49;5.75;;;2.78;;
43678;SDS011;29279;50.858;4.392;2023-04-30T14:31:15;5.15;;;2.47;;
43678;SDS011;29279;50.858;4.392;2023-04-30T14:33:42;6.38;;;2.42;;
43678;SDS011;29279;50.858;4.392;2023-04-30T14:36:08;3.95;;;2.40;;
43678;SDS011;29279;50.858;4.392;2023-04-30T14:38:34;3.42;;;2.17;;
43678;SDS011;29279;50.858;4.392;2023-04-30T14:40:59;4.25;;;2.42;;
43678;SDS011;29279;50.858;4.392;2023-04-30T14:43:25;5.45;;;2.92;;
43678;SDS011;29279;50.858;4.392;2023-04-30T14:45:51;4.65;;;3.10;;
43678;SDS011;29279;50.858;4.392;2023-04-30T14:48:16;3.95;;;3.03;;
43678;SDS011;29279;50.858;4.392;2023-04-30T14:50:43;3.80;;;2.25;;
43678;SDS011;29279;50.858;4.392;2023-04-30T14:53:09;3.40;;;2.45;;
43678;SDS011;29279;50.858;4.392;2023-04-30T14:55:36;5.45;;;2.20;;
43678;SDS011;29279;50.858;4.392;2023-04-30T14:58:05;4.65;;;2.33;;
43678;SDS011;29279;50.858;4.392;2023-04-30T15:00:31;8.35;;;2.53;;
43678;SDS011;29279;50.858;4.392;2023-04-30T15:02:57;4.53;;;2.55;;
43678;SDS011;29279;50.858;4.392;2023-04-30T15:05:23;5.68;;;3.40;;
43678;SDS011;29279;50.858;4.392;2023-04-30T15:07:49;5.43;;;2.30;;